Terminal Aerodrome Forecast
Issued by NWS

Home | Current Version | Previous Version | Text Only | Print | Product List | Glossary On
Versions: 1 2 3 4 5 6 7 8 9 10 11 12 13 14 15 16 17 18 19
000
FTUS43 KDLH 252027 AAB
TAFBRD
TAF AMD
KBRD 252027Z 2520/2618 27011G19KT P6SM VCSH BKN035 BKN060
     FM260000 26007KT P6SM -SN BKN040
     FM260900 VRB04KT 6SM -SN OVC008
     FM261200 29004KT 4SM -SN OVC008
     FM261600 30008KT P6SM BKN020=

USA.gov is the U.S. government's official web portal to all federal, state and local government web resources and services.